Time;durP1;ratioP1;P1;durP2;ratioP2;P2;SDS_P1;SDS_P2;PMS_P1;PMS_P2;Temp;Humidity;BMP_temperature;BMP_pressure;BME280_temperature;BME280_humidity;BME280_pressure;Samples;Min_cycle;Max_cycle;Signal;HPM_P1;HPM_P2
2021/03/07 00:00:15;;;;;;;0.80;0.80;;;0.60;99.90;;;;;;5024560;28;20220;-73
2021/03/07 00:02:42;;;;;;;1.23;0.80;;;0.60;99.90;;;;;;5025030;28;20218;-70
2021/03/07 00:05:10;;;;;;;1.77;0.80;;;0.60;99.90;;;;;;5024811;28;20247;-69
2021/03/07 00:07:37;;;;;;;1.52;0.80;;;0.70;99.90;;;;;;5025424;28;20645;-70
2021/03/07 00:10:06;;;;;;;0.98;0.93;;;0.70;99.90;;;;;;5007570;28;21684;-70
2021/03/07 00:12:32;;;;;;;1.15;0.80;;;0.70;99.90;;;;;;5024619;28;20278;-70
2021/03/07 00:15:01;;;;;;;4.47;0.90;;;0.70;99.90;;;;;;5024064;28;20340;-70
2021/03/07 00:17:27;;;;;;;2.13;1.13;;;0.60;99.90;;;;;;5023597;28;20202;-71
2021/03/07 00:19:52;;;;;;;1.95;0.90;;;0.50;99.90;;;;;;5006763;28;20237;-70
2021/03/07 00:22:18;;;;;;;1.10;1.00;;;0.50;99.90;;;;;;5023668;28;20190;-70
2021/03/07 00:24:44;;;;;;;0.98;0.85;;;0.40;99.90;;;;;;5023367;28;20225;-70
2021/03/07 00:27:10;;;;;;;0.80;0.80;;;0.40;99.90;;;;;;5026382;28;20225;-72
2021/03/07 00:29:35;;;;;;;0.63;0.63;;;0.50;99.90;;;;;;5023211;28;20233;-71
2021/03/07 00:32:01;;;;;;;3.08;1.10;;;0.50;99.90;;;;;;5024330;28;20185;-70
2021/03/07 00:34:27;;;;;;;1.80;0.88;;;0.50;99.90;;;;;;5006705;28;20680;-70
2021/03/07 00:36:52;;;;;;;1.00;0.90;;;0.50;99.90;;;;;;5017607;28;20583;-70
2021/03/07 00:39:18;;;;;;;0.65;0.65;;;0.40;99.90;;;;;;5024321;28;20202;-71
2021/03/07 00:41:44;;;;;;;0.93;0.73;;;0.40;99.90;;;;;;5024831;28;20198;-71
2021/03/07 00:44:11;;;;;;;1.25;0.60;;;0.30;99.90;;;;;;5017229;28;20320;-70
2021/03/07 00:46:45;;;;;;;3.92;0.90;;;0.20;99.90;;;;;;5023962;28;20696;-71
2021/03/07 00:49:12;;;;;;;2.45;0.90;;;0.30;99.90;;;;;;5023923;28;20197;-70
2021/03/07 00:51:38;;;;;;;4.38;0.80;;;0.20;99.90;;;;;;5025158;28;20831;-70
2021/03/07 00:54:04;;;;;;;1.85;0.90;;;0.10;99.90;;;;;;5025582;28;20190;-71
2021/03/07 00:56:30;;;;;;;1.98;1.00;;;0.00;99.90;;;;;;5022450;28;20201;-70
2021/03/07 00:58:56;;;;;;;2.40;0.85;;;0.00;99.90;;;;;;5025198;28;20256;-72
2021/03/07 01:01:22;;;;;;;5.28;1.23;;;0.10;99.90;;;;;;5024348;28;20230;-69
2021/03/07 01:03:48;;;;;;;1.83;1.13;;;0.00;99.90;;;;;;5024229;28;20215;-69
2021/03/07 01:06:14;;;;;;;1.98;1.02;;;-0.10;99.90;;;;;;5022772;28;20550;-70
2021/03/07 01:08:39;;;;;;;1.00;0.90;;;-0.10;99.90;;;;;;5024958;28;20205;-72
2021/03/07 01:11:05;;;;;;;1.65;1.10;;;-0.10;99.90;;;;;;5007705;28;20198;-69
2021/03/07 01:13:31;;;;;;;1.70;1.20;;;-0.20;99.90;;;;;;5024312;28;20244;-70
2021/03/07 01:15:57;;;;;;;3.47;1.08;;;-0.30;99.90;;;;;;5023911;28;20201;-70
2021/03/07 01:18:23;;;;;;;1.42;0.90;;;-0.40;99.90;;;;;;5006937;28;20281;-70
2021/03/07 01:20:49;;;;;;;3.08;1.05;;;-0.50;99.90;;;;;;5024207;28;20228;-70
2021/03/07 01:23:17;;;;;;;3.20;1.05;;;-0.60;99.90;;;;;;5024936;28;20194;-70
2021/03/07 01:25:43;;;;;;;3.05;1.02;;;-0.60;99.90;;;;;;5036840;28;20262;-70
2021/03/07 01:28:08;;;;;;;1.77;0.90;;;-0.70;99.90;;;;;;5023427;28;20293;-69
2021/03/07 01:30:37;;;;;;;2.47;0.90;;;-0.80;99.90;;;;;;5024224;28;20202;-69
2021/03/07 01:33:04;;;;;;;0.70;0.70;;;-0.90;99.90;;;;;;5024815;28;20194;-69
2021/03/07 01:35:30;;;;;;;1.20;1.00;;;-1.10;99.90;;;;;;5024508;28;20198;-69
2021/03/07 01:37:55;;;;;;;4.03;1.23;;;-1.30;99.90;;;;;;5025388;28;20207;-70
2021/03/07 01:40:28;;;;;;;2.50;1.00;;;-1.40;99.90;;;;;;5014295;28;20198;-69
2021/03/07 01:42:56;;;;;;;2.20;0.90;;;-1.50;99.90;;;;;;5039436;28;20669;-69
2021/03/07 01:45:25;;;;;;;1.10;1.00;;;-1.70;99.90;;;;;;5004685;28;20195;-70
2021/03/07 01:47:54;;;;;;;1.23;1.00;;;-1.50;99.90;;;;;;5037239;28;20214;-69
2021/03/07 01:50:22;;;;;;;2.15;1.05;;;-1.70;99.90;;;;;;5024503;28;20194;-69
2021/03/07 01:52:48;;;;;;;2.75;1.10;;;-1.70;99.90;;;;;;5024225;28;20202;-69
2021/03/07 01:55:17;;;;;;;2.75;1.10;;;-1.90;99.90;;;;;;5027152;28;20668;-70
2021/03/07 01:57:45;;;;;;;5.45;0.80;;;-2.00;99.90;;;;;;5024391;28;20276;-70
2021/03/07 02:00:12;;;;;;;2.20;1.10;;;-2.20;99.90;;;;;;5024581;28;20202;-69
2021/03/07 02:02:38;;;;;;;1.83;1.10;;;-2.30;99.90;;;;;;5026190;28;20226;-69
2021/03/07 02:05:15;;;;;;;1.70;1.10;;;-2.40;99.90;;;;;;5025292;28;20198;-69
2021/03/07 02:07:42;;;;;;;2.00;1.15;;;-2.50;99.90;;;;;;5027007;28;20305;-69
2021/03/07 02:10:11;;;;;;;1.38;1.00;;;-2.60;99.90;;;;;;5026382;28;20565;-69
2021/03/07 02:12:38;;;;;;;1.77;1.20;;;-2.70;99.90;;;;;;5011154;28;20311;-68
2021/03/07 02:15:10;;;;;;;1.60;0.98;;;-2.70;99.90;;;;;;5025037;28;20277;-69
2021/03/07 02:17:38;;;;;;;2.05;1.05;;;-2.70;99.90;;;;;;5025893;28;20199;-69
2021/03/07 02:20:06;;;;;;;1.50;1.10;;;-2.70;99.90;;;;;;5027811;28;20207;-70
2021/03/07 02:22:36;;;;;;;1.88;1.05;;;-2.70;99.90;;;;;;5012369;28;20234;-69
2021/03/07 02:25:11;;;;;;;1.25;0.95;;;-2.70;99.90;;;;;;5027428;28;20550;-70
2021/03/07 02:27:37;;;;;;;4.88;1.20;;;-2.70;99.90;;;;;;5027303;28;20205;-69
2021/03/07 02:30:06;;;;;;;2.42;1.08;;;-2.70;99.90;;;;;;5027680;28;20204;-71
2021/03/07 02:32:35;;;;;;;3.10;1.08;;;-2.70;99.90;;;;;;5040880;28;20691;-69
2021/03/07 02:35:07;;;;;;;4.00;1.15;;;-2.60;99.90;;;;;;5009786;28;20300;-69
2021/03/07 02:37:35;;;;;;;3.88;1.00;;;-2.60;99.90;;;;;;5016202;28;20291;-69
2021/03/07 02:40:02;;;;;;;1.92;1.20;;;-2.70;99.90;;;;;;5024366;28;20202;-69
2021/03/07 02:42:30;;;;;;;1.52;0.90;;;-2.70;99.90;;;;;;5007785;28;20194;-69
2021/03/07 02:45:05;;;;;;;1.02;0.90;;;-2.70;99.90;;;;;;5025585;28;20268;-69
2021/03/07 02:47:33;;;;;;;7.00;1.10;;;-2.80;99.90;;;;;;5026995;28;20205;-69
2021/03/07 02:50:09;;;;;;;1.20;1.00;;;-2.70;99.90;;;;;;5019160;28;20296;-69
2021/03/07 02:52:38;;;;;;;1.35;1.00;;;-2.80;99.90;;;;;;5008228;28;20644;-69
2021/03/07 02:55:07;;;;;;;4.78;1.20;;;-2.90;99.90;;;;;;5026839;28;20584;-69
2021/03/07 02:57:34;;;;;;;1.20;1.10;;;-3.00;99.90;;;;;;5026816;28;20209;-69
2021/03/07 03:00:01;;;;;;;4.20;1.10;;;-3.10;99.90;;;;;;5025634;28;20213;-70
2021/03/07 03:02:30;;;;;;;1.40;1.00;;;-3.00;99.90;;;;;;4997837;28;20262;-69
2021/03/07 03:04:58;;;;;;;2.25;1.13;;;-2.90;99.90;;;;;;5023034;28;20186;-69
2021/03/07 03:07:26;;;;;;;1.10;1.00;;;-3.00;99.90;;;;;;5009711;28;20364;-69
2021/03/07 03:09:53;;;;;;;1.13;1.02;;;-3.00;99.90;;;;;;5008343;28;20676;-69
2021/03/07 03:12:21;;;;;;;3.03;1.00;;;-3.10;99.90;;;;;;5026585;28;20252;-69
2021/03/07 03:14:46;;;;;;;2.95;1.10;;;-3.10;99.90;;;;;;5026189;28;20224;-69
2021/03/07 03:17:14;;;;;;;1.70;1.00;;;-3.20;99.90;;;;;;5027758;28;20240;-70
2021/03/07 03:19:44;;;;;;;2.50;1.00;;;-3.20;99.90;;;;;;5026888;28;20299;-71
2021/03/07 03:22:11;;;;;;;5.28;1.25;;;-3.20;99.90;;;;;;5027896;28;20676;-71
2021/03/07 03:24:37;;;;;;;1.30;1.20;;;-3.40;99.90;;;;;;5026343;28;20286;-69
2021/03/07 03:27:04;;;;;;;2.08;1.00;;;-3.50;99.90;;;;;;5026959;28;20264;-69
2021/03/07 03:29:30;;;;;;;2.13;1.08;;;-3.60;99.90;;;;;;5026169;28;20558;-70
2021/03/07 03:31:58;;;;;;;4.75;1.30;;;-3.60;99.90;;;;;;5009520;28;20279;-69
2021/03/07 03:34:23;;;;;;;0.90;0.90;;;-3.70;99.90;;;;;;5026625;28;20193;-70
2021/03/07 03:36:50;;;;;;;1.20;0.80;;;-3.50;99.90;;;;;;5027245;28;20206;-68
2021/03/07 03:39:21;;;;;;;1.20;1.10;;;-3.60;99.90;;;;;;5026641;28;20202;-70
2021/03/07 03:41:50;;;;;;;1.45;1.10;;;-3.60;99.90;;;;;;5025033;28;20728;-70
2021/03/07 03:44:23;;;;;;;3.88;1.50;;;-3.70;99.90;;;;;;5026829;28;20755;-69
2021/03/07 03:46:51;;;;;;;3.67;1.30;;;-3.80;99.90;;;;;;5026067;28;20695;-69
2021/03/07 03:49:55;;;;;;;1.63;1.10;;;-3.80;99.90;;;;;;5026183;28;20541;-69
2021/03/07 03:52:25;;;;;;;6.75;1.15;;;-3.90;99.90;;;;;;5022530;28;20225;-69
2021/03/07 03:55:12;;;;;;;3.00;1.10;;;-3.90;99.90;;;;;;5025162;28;20255;-69
2021/03/07 03:57:40;;;;;;;2.00;1.25;;;-3.90;99.90;;;;;;5004174;28;20218;-69
2021/03/07 04:00:14;;;;;;;2.22;1.15;;;-3.80;99.90;;;;;;5025079;28;20281;-69
2021/03/07 04:02:41;;;;;;;2.35;1.20;;;-3.60;99.90;;;;;;5017516;28;20244;-72
2021/03/07 04:05:09;;;;;;;1.10;1.00;;;-3.40;99.90;;;;;;5018093;28;20212;-71
2021/03/07 04:07:37;;;;;;;1.10;1.05;;;-3.30;99.90;;;;;;5026793;28;20288;-69
2021/03/07 04:10:05;;;;;;;1.30;1.10;;;-3.30;99.90;;;;;;5025923;28;20189;-69
2021/03/07 04:12:32;;;;;;;6.55;1.23;;;-3.30;99.90;;;;;;5006330;28;20190;-69
2021/03/07 04:14:59;;;;;;;1.77;1.10;;;-3.40;99.90;;;;;;5021332;28;20206;-69
2021/03/07 04:17:26;;;;;;;1.83;0.90;;;-3.10;99.90;;;;;;5007077;28;20201;-68
2021/03/07 04:19:53;;;;;;;2.28;1.15;;;-3.10;99.90;;;;;;5025755;28;20206;-69
2021/03/07 04:22:20;;;;;;;2.25;1.10;;;-2.90;99.90;;;;;;5024326;28;20271;-70
2021/03/07 04:24:46;;;;;;;2.55;1.10;;;-2.90;99.90;;;;;;5024215;28;20277;-69
2021/03/07 04:27:13;;;;;;;4.40;1.10;;;-2.80;99.90;;;;;;5016407;28;20223;-69
2021/03/07 04:29:40;;;;;;;1.15;1.00;;;-2.70;99.90;;;;;;5024476;28;20276;-69
2021/03/07 04:32:07;;;;;;;1.70;1.15;;;-2.60;99.90;;;;;;5016599;28;20882;-71
2021/03/07 04:34:34;;;;;;;1.25;1.00;;;-2.50;99.90;;;;;;5025790;28;20248;-69
2021/03/07 04:37:01;;;;;;;2.92;1.05;;;-2.50;99.90;;;;;;5024432;28;20202;-71
2021/03/07 04:39:26;;;;;;;1.50;1.00;;;-2.50;99.90;;;;;;5024334;28;20233;-69
2021/03/07 04:41:53;;;;;;;1.50;0.90;;;-2.20;99.90;;;;;;5005724;28;20240;-69
2021/03/07 04:44:19;;;;;;;1.08;0.90;;;-2.00;99.90;;;;;;5026034;28;20733;-69
2021/03/07 04:46:44;;;;;;;1.23;1.00;;;-1.80;99.90;;;;;;5024880;28;20205;-69
2021/03/07 04:49:10;;;;;;;1.10;1.00;;;-1.70;99.10;;;;;;5024679;28;20194;-69
2021/03/07 04:51:36;;;;;;;1.38;1.00;;;-1.60;98.60;;;;;;5016270;28;20726;-69
2021/03/07 04:54:02;;;;;;;6.55;1.15;;;-1.40;97.10;;;;;;5023700;28;20182;-70
2021/03/07 04:56:29;;;;;;;1.75;0.98;;;-1.30;96.70;;;;;;5025178;28;20206;-69
2021/03/07 04:58:55;;;;;;;4.68;1.08;;;-1.30;97.10;;;;;;5018193;28;20214;-71
2021/03/07 05:01:21;;;;;;;1.05;1.00;;;-1.30;96.00;;;;;;5006259;28;20238;-69
2021/03/07 05:03:47;;;;;;;1.05;0.95;;;-1.30;94.90;;;;;;5024868;28;20206;-69
2021/03/07 05:06:13;;;;;;;1.45;1.00;;;-1.30;95.60;;;;;;5024801;28;20210;-68
2021/03/07 05:08:39;;;;;;;2.47;0.90;;;-1.20;94.40;;;;;;5006800;28;20659;-69
2021/03/07 05:11:05;;;;;;;2.33;1.02;;;-1.30;94.80;;;;;;5023809;28;20205;-70
2021/03/07 05:13:31;;;;;;;2.47;1.17;;;-1.20;93.80;;;;;;5025393;28;20194;-70
2021/03/07 05:15:57;;;;;;;2.45;1.10;;;-1.00;93.70;;;;;;5023856;28;20218;-69
2021/03/07 05:18:23;;;;;;;2.25;1.10;;;-1.10;93.40;;;;;;5024038;28;20190;-69
2021/03/07 05:20:49;;;;;;;1.33;0.90;;;-1.00;93.00;;;;;;5024364;28;20197;-69
2021/03/07 05:23:14;;;;;;;1.10;0.90;;;-0.90;91.80;;;;;;5025194;28;20209;-68
2021/03/07 05:25:42;;;;;;;1.35;0.95;;;-0.70;91.40;;;;;;5024184;28;20198;-71
2021/03/07 05:28:08;;;;;;;2.08;1.10;;;-0.60;91.20;;;;;;5025748;28;20210;-69
2021/03/07 05:30:36;;;;;;;1.95;0.90;;;-0.60;91.30;;;;;;5028420;28;20186;-69
2021/03/07 05:33:02;;;;;;;2.28;1.05;;;-0.60;90.90;;;;;;5029172;28;20198;-70
2021/03/07 05:35:27;;;;;;;1.63;1.00;;;-0.60;90.90;;;;;;5027179;28;20194;-70
2021/03/07 05:37:54;;;;;;;0.80;0.80;;;-0.60;90.00;;;;;;5029779;28;20208;-69
2021/03/07 05:40:19;;;;;;;0.88;0.82;;;-0.40;90.00;;;;;;5029326;28;20194;-69
2021/03/07 05:42:45;;;;;;;1.00;0.90;;;-0.40;88.90;;;;;;5026184;28;20209;-69
2021/03/07 05:45:12;;;;;;;0.90;0.90;;;-0.30;89.50;;;;;;5027504;28;20250;-69
2021/03/07 05:47:38;;;;;;;1.20;0.88;;;-0.30;88.80;;;;;;5028887;28;20656;-70
2021/03/07 05:50:05;;;;;;;1.00;0.95;;;-0.20;88.60;;;;;;5028218;28;20737;-69
2021/03/07 05:52:31;;;;;;;1.85;0.90;;;-0.20;89.40;;;;;;5028133;28;20283;-69
2021/03/07 05:54:57;;;;;;;3.97;1.00;;;-0.20;89.10;;;;;;5027602;28;20198;-69
2021/03/07 05:57:25;;;;;;;1.40;1.08;;;-0.20;89.40;;;;;;5026754;28;20200;-70
2021/03/07 05:59:51;;;;;;;0.80;0.80;;;-0.10;87.00;;;;;;5025020;28;20225;-69
2021/03/07 06:02:18;;;;;;;1.25;1.02;;;-0.20;89.50;;;;;;5015575;28;20303;-68
2021/03/07 06:04:50;;;;;;;1.13;0.93;;;-0.10;87.90;;;;;;5008803;28;20617;-69
2021/03/07 06:07:16;;;;;;;4.20;0.90;;;-0.10;87.50;;;;;;5010377;28;20210;-70
2021/03/07 06:09:41;;;;;;;0.88;0.80;;;-0.10;88.60;;;;;;5007557;28;20190;-69
2021/03/07 06:12:16;;;;;;;0.90;0.80;;;-0.10;88.60;;;;;;5009975;28;20215;-69
2021/03/07 06:14:43;;;;;;;2.33;0.93;;;0.00;88.30;;;;;;4989449;28;20198;-69
2021/03/07 06:17:11;;;;;;;0.95;0.95;;;0.00;83.50;;;;;;5008725;28;20211;-70
2021/03/07 06:19:59;;;;;;;4.20;0.90;;;0.10;81.30;;;;;;5000834;28;20286;-68
2021/03/07 06:22:27;;;;;;;2.05;1.00;;;0.10;81.40;;;;;;5003174;28;20937;-69
2021/03/07 06:24:54;;;;;;;1.10;1.00;;;0.00;82.50;;;;;;5008749;28;20272;-69
2021/03/07 06:27:20;;;;;;;0.95;0.90;;;0.00;81.50;;;;;;5010822;28;20259;-70
2021/03/07 06:29:55;;;;;;;1.70;0.93;;;0.00;82.20;;;;;;5012850;28;20321;-69
2021/03/07 06:32:22;;;;;;;1.27;0.90;;;-0.10;82.40;;;;;;5009858;28;20190;-69
2021/03/07 06:34:49;;;;;;;0.77;0.77;;;-0.10;83.70;;;;;;5011840;28;20601;-69
2021/03/07 06:37:16;;;;;;;2.33;1.00;;;-0.20;83.50;;;;;;5010456;28;20199;-68
2021/03/07 06:39:42;;;;;;;0.80;0.80;;;-0.30;82.10;;;;;;5007424;28;20262;-69
2021/03/07 06:42:09;;;;;;;1.05;0.95;;;-0.40;81.80;;;;;;5009752;28;20711;-69
2021/03/07 06:44:36;;;;;;;2.70;0.82;;;-0.50;83.00;;;;;;4989241;28;20196;-68
2021/03/07 06:47:11;;;;;;;0.75;0.70;;;-0.60;82.30;;;;;;5008886;28;20252;-70
2021/03/07 06:49:38;;;;;;;2.60;0.95;;;-0.70;85.00;;;;;;5007397;28;20186;-69
2021/03/07 06:52:15;;;;;;;4.78;0.88;;;-0.70;83.50;;;;;;4993096;28;20229;-70
2021/03/07 06:54:43;;;;;;;0.73;0.73;;;-0.60;79.80;;;;;;5006726;28;20194;-71
2021/03/07 06:57:08;;;;;;;1.27;1.00;;;-0.60;81.90;;;;;;5008114;28;20752;-69
2021/03/07 06:59:35;;;;;;;1.42;1.10;;;-0.70;82.30;;;;;;5006650;28;20290;-71
2021/03/07 07:02:09;;;;;;;0.95;0.80;;;-0.70;83.10;;;;;;5007809;28;20235;-70
2021/03/07 07:04:42;;;;;;;0.88;0.88;;;-0.80;83.80;;;;;;5001218;28;20936;-71
2021/03/07 07:07:13;;;;;;;0.90;0.90;;;-0.80;83.60;;;;;;5007591;28;20305;-71
2021/03/07 07:09:44;;;;;;;1.05;0.90;;;-0.80;82.90;;;;;;5006083;28;20195;-70
2021/03/07 07:12:21;;;;;;;1.13;0.93;;;-0.90;83.10;;;;;;5006035;28;20215;-71
2021/03/07 07:14:47;;;;;;;1.33;0.93;;;-0.80;80.70;;;;;;4984821;28;20206;-72
2021/03/07 07:17:20;;;;;;;1.10;1.00;;;-0.80;79.30;;;;;;4992183;28;20674;-69
2021/03/07 07:19:47;;;;;;;1.00;0.80;;;-0.80;76.60;;;;;;5010897;28;20202;-71
2021/03/07 07:22:15;;;;;;;1.10;0.90;;;-0.70;76.80;;;;;;5010307;28;20191;-69
2021/03/07 07:24:42;;;;;;;0.90;0.80;;;-0.60;76.00;;;;;;4984378;28;20195;-72
2021/03/07 07:27:08;;;;;;;1.00;1.00;;;-0.50;75.90;;;;;;4998762;28;20230;-69
2021/03/07 07:29:35;;;;;;;2.47;1.00;;;-0.50;75.00;;;;;;4983328;28;20731;-70
2021/03/07 07:32:15;;;;;;;0.93;0.93;;;-0.40;76.70;;;;;;5003180;28;20210;-70
2021/03/07 07:34:48;;;;;;;2.25;0.88;;;-0.40;77.10;;;;;;4987245;28;20616;-69
2021/03/07 07:37:24;;;;;;;0.85;0.85;;;-0.40;78.10;;;;;;4983321;28;20207;-69
2021/03/07 07:39:55;;;;;;;1.08;0.80;;;-0.30;78.50;;;;;;5005967;28;20815;-71
2021/03/07 07:42:30;;;;;;;1.45;1.35;;;-0.30;77.80;;;;;;4987907;28;20199;-71
2021/03/07 07:45:18;;;;;;;2.17;1.05;;;-0.30;76.80;;;;;;5007794;28;20209;-69
2021/03/07 07:47:48;;;;;;;2.70;0.82;;;-0.30;75.70;;;;;;5000906;28;20209;-70
2021/03/07 07:50:29;;;;;;;1.17;0.80;;;-0.30;74.10;;;;;;5003791;28;20199;-69
2021/03/07 07:53:18;;;;;;;2.38;1.00;;;-0.40;75.80;;;;;;5003249;28;20579;-69
2021/03/07 07:55:51;;;;;;;3.13;1.25;;;-0.30;74.50;;;;;;5003233;28;20242;-70
2021/03/07 07:58:40;;;;;;;3.03;1.45;;;-0.30;73.40;;;;;;5006644;28;20203;-70
2021/03/07 08:01:13;;;;;;;1.08;0.98;;;-0.20;73.80;;;;;;4982503;28;20209;-71
2021/03/07 08:03:44;;;;;;;1.10;1.00;;;-0.20;73.90;;;;;;5021747;28;20198;-69
2021/03/07 08:06:40;;;;;;;2.85;1.50;;;-0.20;72.70;;;;;;5007690;28;20198;-71
2021/03/07 08:09:34;;;;;;;2.15;1.40;;;-0.10;73.90;;;;;;5023711;28;20194;-70
2021/03/07 08:12:20;;;;;;;2.60;1.17;;;-0.10;73.20;;;;;;5022885;28;20198;-70
2021/03/07 08:14:46;;;;;;;1.52;1.02;;;-0.10;74.60;;;;;;5020402;28;20194;-69
2021/03/07 08:17:50;;;;;;;1.88;1.10;;;-0.10;73.50;;;;;;4999699;28;20209;-70
2021/03/07 08:20:38;;;;;;;7.05;2.63;;;-0.20;73.70;;;;;;5019615;28;20205;-71
2021/03/07 08:23:16;;;;;;;3.80;1.15;;;0.10;75.20;;;;;;5021305;28;20201;-69
2021/03/07 08:25:51;;;;;;;5.88;1.42;;;0.20;73.00;;;;;;5014914;28;20213;-69
2021/03/07 08:28:28;;;;;;;2.72;1.13;;;0.20;72.50;;;;;;5021546;28;20297;-71
2021/03/07 08:31:06;;;;;;;1.98;1.00;;;0.20;73.00;;;;;;5021268;28;20340;-70
2021/03/07 08:33:33;;;;;;;2.60;1.08;;;0.20;73.60;;;;;;5021928;28;20194;-71
2021/03/07 08:36:11;;;;;;;3.35;1.00;;;0.30;73.50;;;;;;5002183;28;20198;-69
2021/03/07 08:38:58;;;;;;;1.08;0.95;;;0.30;73.40;;;;;;5016689;28;20199;-70
2021/03/07 08:41:34;;;;;;;2.00;0.95;;;0.10;73.70;;;;;;5004424;28;20689;-70
2021/03/07 08:44:00;;;;;;;3.65;1.20;;;0.20;74.80;;;;;;5015588;28;20255;-71
2021/03/07 08:46:28;;;;;;;1.55;1.00;;;0.20;74.40;;;;;;5015423;28;20289;-70
2021/03/07 08:49:06;;;;;;;2.22;1.05;;;0.20;73.60;;;;;;5017676;28;20217;-69
2021/03/07 08:51:35;;;;;;;2.55;0.82;;;0.30;74.30;;;;;;5019804;28;20196;-70
2021/03/07 08:54:07;;;;;;;4.05;0.70;;;0.30;73.80;;;;;;5013682;28;20197;-70
2021/03/07 08:56:34;;;;;;;3.45;1.40;;;0.30;73.90;;;;;;5017895;28;20234;-70
2021/03/07 08:58:59;;;;;;;2.45;1.08;;;0.40;73.90;;;;;;5017651;28;20209;-71
2021/03/07 09:01:26;;;;;;;2.90;1.70;;;0.50;73.90;;;;;;4999831;28;20233;-70
2021/03/07 09:03:59;;;;;;;1.95;1.05;;;0.50;74.60;;;;;;5018143;28;20629;-69
2021/03/07 09:06:30;;;;;;;7.18;1.10;;;0.60;73.50;;;;;;5017978;28;20317;-69
2021/03/07 09:09:19;;;;;;;3.15;1.30;;;0.60;74.10;;;;;;5022245;28;20201;-71
2021/03/07 09:11:59;;;;;;;2.15;1.00;;;0.90;73.10;;;;;;5016758;28;20222;-71
2021/03/07 09:14:34;;;;;;;0.93;0.85;;;1.10;73.00;;;;;;5017724;28;20202;-70
2021/03/07 09:17:03;;;;;;;5.57;1.20;;;1.20;71.20;;;;;;5018096;28;20324;-70
2021/03/07 09:19:38;;;;;;;2.47;1.00;;;1.20;71.30;;;;;;5000076;28;20241;-72
2021/03/07 09:22:24;;;;;;;3.22;0.90;;;1.30;71.60;;;;;;5000348;28;20229;-69
2021/03/07 09:24:57;;;;;;;1.77;0.90;;;1.50;70.70;;;;;;5016507;28;20566;-70
2021/03/07 09:27:25;;;;;;;0.98;0.77;;;1.70;70.70;;;;;;5024727;28;20290;-71
2021/03/07 09:29:57;;;;;;;1.15;0.82;;;1.80;70.80;;;;;;5003137;28;20633;-71
2021/03/07 09:32:47;;;;;;;1.77;1.20;;;2.00;70.00;;;;;;5016176;28;20782;-70
2021/03/07 09:35:27;;;;;;;1.83;1.00;;;2.00;70.00;;;;;;4997203;28;20209;-70
2021/03/07 09:38:07;;;;;;;1.67;1.10;;;1.90;68.80;;;;;;5021605;28;20563;-70
2021/03/07 09:40:44;;;;;;;4.75;1.02;;;1.90;70.00;;;;;;5021192;28;20648;-70
2021/03/07 09:43:12;;;;;;;1.48;0.90;;;2.00;70.90;;;;;;5030904;28;20547;-71
2021/03/07 09:45:43;;;;;;;1.55;1.05;;;2.20;69.00;;;;;;5021750;28;20630;-70
2021/03/07 09:48:10;;;;;;;1.08;0.82;;;2.20;68.20;;;;;;5021377;28;20210;-69
2021/03/07 09:50:36;;;;;;;3.70;1.00;;;2.30;67.30;;;;;;5016456;28;20194;-71
2021/03/07 09:53:04;;;;;;;3.75;0.80;;;2.40;67.30;;;;;;5021088;28;20621;-71
2021/03/07 09:55:33;;;;;;;3.35;0.90;;;2.30;66.50;;;;;;5018621;28;20206;-70
2021/03/07 09:58:04;;;;;;;1.23;0.88;;;2.40;67.00;;;;;;5019851;28;20751;-70
2021/03/07 10:00:31;;;;;;;1.88;0.82;;;2.40;67.30;;;;;;5000461;28;20367;-71
2021/03/07 10:02:58;;;;;;;1.02;0.90;;;2.60;66.60;;;;;;5012848;28;20226;-72
2021/03/07 10:05:24;;;;;;;1.00;0.88;;;2.70;66.40;;;;;;5018967;28;20285;-71
2021/03/07 10:07:50;;;;;;;3.22;0.77;;;2.70;66.50;;;;;;5017050;28;20210;-72
2021/03/07 10:10:18;;;;;;;1.48;0.80;;;2.90;65.20;;;;;;5018172;28;20209;-72
2021/03/07 10:12:58;;;;;;;2.38;1.02;;;2.80;65.80;;;;;;5022083;28;20207;-71
2021/03/07 10:15:35;;;;;;;2.42;0.90;;;3.00;67.20;;;;;;5018664;28;20225;-72
2021/03/07 10:18:08;;;;;;;1.52;0.95;;;3.20;67.10;;;;;;5021934;28;20202;-70
2021/03/07 10:20:48;;;;;;;5.53;1.20;;;3.40;67.20;;;;;;5019186;28;20286;-73
2021/03/07 10:23:13;;;;;;;5.40;0.95;;;3.40;65.80;;;;;;5021724;28;20216;-71
2021/03/07 10:25:42;;;;;;;2.25;1.08;;;3.40;65.80;;;;;;5021279;28;20205;-74
2021/03/07 10:28:12;;;;;;;0.98;0.88;;;3.60;66.60;;;;;;5018363;28;20210;-70
2021/03/07 10:30:43;;;;;;;2.88;1.15;;;3.60;63.10;;;;;;5021270;28;20193;-70
2021/03/07 10:33:29;;;;;;;1.80;0.95;;;3.70;66.10;;;;;;5026082;28;20625;-73
2021/03/07 10:36:10;;;;;;;1.70;0.90;;;3.70;65.50;;;;;;5027999;28;20273;-70
2021/03/07 10:38:43;;;;;;;1.23;1.05;;;3.50;64.00;;;;;;5019924;28;20628;-72
2021/03/07 10:41:19;;;;;;;2.40;1.00;;;3.70;66.10;;;;;;5012841;28;20696;-73
2021/03/07 10:43:56;;;;;;;1.10;0.80;;;3.90;63.50;;;;;;5024454;28;20198;-74
2021/03/07 10:46:31;;;;;;;5.30;1.15;;;4.00;64.00;;;;;;5021469;28;20707;-70
2021/03/07 10:49:00;;;;;;;7.35;1.20;;;3.90;64.60;;;;;;5022938;28;20198;-71
2021/03/07 10:51:27;;;;;;;3.63;1.15;;;3.90;64.30;;;;;;5013298;28;20217;-71
2021/03/07 10:53:56;;;;;;;3.72;1.27;;;3.90;64.50;;;;;;5034317;28;20201;-71
2021/03/07 10:56:28;;;;;;;2.25;0.98;;;4.10;63.00;;;;;;5029323;28;20205;-72
2021/03/07 10:58:57;;;;;;;3.90;1.08;;;4.00;62.30;;;;;;5032710;28;20285;-71
2021/03/07 11:01:23;;;;;;;2.88;1.17;;;4.00;63.80;;;;;;5016227;28;20222;-70
2021/03/07 11:03:50;;;;;;;4.32;1.20;;;4.30;63.00;;;;;;5019165;28;20194;-70
2021/03/07 11:06:16;;;;;;;1.58;1.10;;;4.50;63.20;;;;;;5006715;28;20199;-71
2021/03/07 11:08:42;;;;;;;3.13;1.20;;;4.60;61.50;;;;;;5023770;28;20346;-70
2021/03/07 11:11:08;;;;;;;4.10;1.05;;;4.40;60.20;;;;;;5024489;28;20650;-70
2021/03/07 11:13:34;;;;;;;3.70;1.10;;;4.30;61.40;;;;;;5025417;28;20186;-70
2021/03/07 11:16:01;;;;;;;1.08;0.85;;;4.30;62.80;;;;;;5024061;28;20206;-71
2021/03/07 11:18:27;;;;;;;2.47;1.15;;;4.60;63.20;;;;;;5023475;28;20207;-71
2021/03/07 11:20:53;;;;;;;1.35;0.95;;;5.10;61.20;;;;;;5017334;28;20229;-71
2021/03/07 11:23:19;;;;;;;4.55;1.00;;;5.10;60.50;;;;;;5008857;28;20201;-70
2021/03/07 11:25:45;;;;;;;3.42;1.20;;;5.00;59.70;;;;;;5013343;28;20291;-70
2021/03/07 11:28:11;;;;;;;2.25;0.98;;;4.90;60.40;;;;;;5017245;28;20202;-72
2021/03/07 11:30:36;;;;;;;3.83;0.90;;;4.90;61.80;;;;;;5004472;28;20249;-71
2021/03/07 11:33:03;;;;;;;3.92;1.17;;;4.90;59.50;;;;;;5011163;28;20688;-70
2021/03/07 11:35:28;;;;;;;2.13;0.90;;;4.80;61.60;;;;;;5012641;28;20194;-71
2021/03/07 11:37:57;;;;;;;3.33;1.00;;;5.00;61.20;;;;;;5006383;28;20194;-71
2021/03/07 11:40:22;;;;;;;5.03;1.00;;;5.00;60.70;;;;;;5016367;28;20214;-71
2021/03/07 11:42:48;;;;;;;2.13;1.13;;;5.10;61.60;;;;;;5030258;28;20207;-76
2021/03/07 11:45:15;;;;;;;2.35;1.10;;;5.40;60.00;;;;;;5023844;28;21002;-70
2021/03/07 11:47:41;;;;;;;5.13;1.10;;;5.20;59.90;;;;;;5022043;28;21730;-71
2021/03/07 11:50:07;;;;;;;3.30;1.20;;;5.20;60.90;;;;;;5008465;28;20191;-72
2021/03/07 11:52:33;;;;;;;1.83;1.13;;;5.20;60.30;;;;;;5023591;28;20194;-70
2021/03/07 11:54:59;;;;;;;5.03;0.90;;;5.40;61.30;;;;;;5024236;28;20194;-70
2021/03/07 11:57:24;;;;;;;1.48;1.00;;;5.60;60.10;;;;;;5021679;28;20224;-72
2021/03/07 11:59:50;;;;;;;3.88;1.10;;;5.60;60.60;;;;;;5020505;28;20206;-71
2021/03/07 12:02:16;;;;;;;1.63;0.82;;;5.70;59.70;;;;;;5001597;28;20741;-73
2021/03/07 12:04:41;;;;;;;1.80;1.08;;;5.60;58.90;;;;;;5023010;28;20540;-71
2021/03/07 12:07:07;;;;;;;3.28;1.00;;;5.80;60.60;;;;;;5024264;28;20440;-71
2021/03/07 12:09:33;;;;;;;6.75;1.23;;;6.20;60.20;;;;;;5022641;28;20591;-71
2021/03/07 12:12:02;;;;;;;4.57;1.05;;;6.30;58.70;;;;;;5023376;28;20269;-71
2021/03/07 12:14:28;;;;;;;4.10;1.13;;;6.00;58.20;;;;;;5023930;28;20998;-72
2021/03/07 12:16:54;;;;;;;2.50;1.00;;;5.90;59.40;;;;;;5021896;28;20202;-70
2021/03/07 12:19:20;;;;;;;1.65;1.05;;;5.90;58.60;;;;;;5020195;28;20280;-70
2021/03/07 12:21:46;;;;;;;0.80;0.80;;;6.20;59.50;;;;;;5020239;28;20617;-72
2021/03/07 12:24:12;;;;;;;1.70;0.98;;;6.00;57.30;;;;;;5002860;28;20230;-71
2021/03/07 12:26:38;;;;;;;3.88;1.20;;;5.70;58.90;;;;;;5023012;28;20740;-72
2021/03/07 12:29:04;;;;;;;3.17;1.00;;;5.90;59.00;;;;;;5035526;28;20213;-72
2021/03/07 12:31:30;;;;;;;1.50;1.00;;;5.80;58.40;;;;;;5018837;28;20818;-71
2021/03/07 12:33:56;;;;;;;2.47;1.17;;;5.90;58.40;;;;;;5019420;28;20198;-71
2021/03/07 12:36:22;;;;;;;2.17;1.02;;;6.00;58.10;;;;;;5021843;28;20195;-70
2021/03/07 12:38:47;;;;;;;3.90;1.08;;;5.90;57.90;;;;;;5001660;28;20542;-71
2021/03/07 12:41:13;;;;;;;4.10;1.00;;;5.80;58.30;;;;;;5021952;28;20704;-71
2021/03/07 12:43:39;;;;;;;2.05;0.90;;;5.90;58.80;;;;;;5021143;28;20198;-73
2021/03/07 12:46:05;;;;;;;3.13;1.20;;;5.90;57.70;;;;;;5021238;28;20186;-70
2021/03/07 12:48:30;;;;;;;2.55;0.90;;;5.70;58.30;;;;;;5004899;28;20229;-72
2021/03/07 12:50:56;;;;;;;1.77;0.98;;;5.80;58.30;;;;;;5017727;28;20198;-73
2021/03/07 12:53:22;;;;;;;2.95;1.02;;;5.90;57.90;;;;;;5020072;28;20233;-71
2021/03/07 12:55:47;;;;;;;1.50;0.90;;;6.00;57.20;;;;;;5022504;28;20194;-71
2021/03/07 12:58:13;;;;;;;1.25;0.88;;;6.10;57.30;;;;;;5022969;28;20206;-70
2021/03/07 13:00:39;;;;;;;1.10;1.00;;;6.00;58.50;;;;;;5004250;28;20352;-71